Teddy Meyer — WDF9635 — position and weather

sailwx.info

Track history (hours):
 
Tides and Currents Weather Stations Pressure Air Temp Water Temp Dewpoint Dewpoint Depression Visibility Wind Speed Wind Dir Waves Ship Positions

Teddy Meyer

Owner: LeBeouf Bros. Towing, LLC, Houma, LA. More information available from US FCC via Universal Licensing System and Coast Guard Vessel Documentation Center.

Last reported at 2017-Mar-09 11:16 UTC. Time now 2017-Mar-30 12:49 UTC.
Position N 32°31' W 091°06'.
Warning: this ship's position is 21 days out of date.

; draft 3 m.

MMSI: 367507220.

Date/timePositionNaut miles runAvg speedWind from/ knotsBaromVisibWave heightAir tempDewpointWater temp
2017-Mar-09 11:16N 32°31' W 091°06'3 4.6
2017-Mar-09 10:33N 32°28' W 091°06'5 4.7
2017-Mar-09 09:33N 32°26' W 091°01'4 3.6
2017-Mar-09 08:33N 32°22' W 091°00'3 3.2
2017-Mar-09 07:33N 32°21' W 090°57'3 2.9
2017-Mar-09 06:33N 32°19' W 090°54'4 4.4
2017-Mar-09 05:33N 32°16' W 090°58'5 4.6
2017-Mar-09 04:32N 32°11' W 090°60'5 4.3
2017-Mar-09 03:29N 32°07' W 091°02'4 4.4
2017-Mar-09 02:33N 32°07' W 091°07'76 3.2
2017-Mar-08 03:09N 30°60' W 091°47'100 3.7
2017-Mar-07 00:12N 29°32' W 090°50'4 6.7
2017-Mar-06 23:33N 29°33' W 090°46'1 1.1
2017-Mar-06 22:34N 29°34' W 090°45'5 4.6
2017-Mar-06 21:33N 29°36' W 090°40'4 4.0
2017-Mar-06 20:30N 29°35' W 090°36'0 0.1
2017-Mar-06 19:33N 29°35' W 090°36'0 0.4
2017-Mar-06 18:33N 29°34' W 090°36'0 0.0
2017-Mar-06 17:33N 29°34' W 090°36'0 0.0
2017-Mar-06 16:33N 29°34' W 090°36'0 0.0
2017-Mar-06 15:33N 29°34' W 090°36'0 0.0
2017-Mar-06 14:33N 29°34' W 090°36'0 0.0
2017-Mar-06 13:33N 29°34' W 090°36'0 0.0
2017-Mar-06 12:33N 29°34' W 090°36'0 0.0
2017-Mar-06 11:33N 29°34' W 090°36'0 0.0
2017-Mar-06 10:33N 29°34' W 090°36'0 0.0
2017-Mar-06 09:33N 29°34' W 090°36'0 0.0
2017-Mar-06 08:33N 29°34' W 090°36'0 0.0
2017-Mar-06 07:33N 29°34' W 090°36'0 0.0
2017-Mar-06 06:33N 29°34' W 090°36'0 0.0
2017-Mar-06 05:33N 29°34' W 090°36'0 0.0
2017-Mar-06 04:33N 29°34' W 090°36'0 0.0
2017-Mar-06 03:33N 29°34' W 090°36'0 0.0
2017-Mar-06 02:32N 29°34' W 090°36'0 0.0
2017-Mar-06 01:33N 29°34' W 090°36'0 0.0
2017-Mar-06 00:33N 29°34' W 090°36'0 0.0
2017-Mar-05 23:33N 29°34' W 090°36'0 0.0
2017-Mar-05 22:33N 29°34' W 090°36'0 0.0
2017-Mar-05 21:33N 29°34' W 090°36'0 0.0
2017-Mar-05 20:33N 29°34' W 090°36'0 0.0
2017-Mar-05 19:33N 29°34' W 090°36'0 0.0
2017-Mar-05 18:33N 29°34' W 090°36'0 0.0
2017-Mar-05 17:33N 29°34' W 090°36'0 0.0
2017-Mar-05 16:33N 29°34' W 090°36'0 0.0
2017-Mar-05 15:33N 29°34' W 090°36'0 0.0
2017-Mar-05 14:33N 29°34' W 090°36'0 0.0
2017-Mar-05 13:33N 29°34' W 090°36'0 0.0
2017-Mar-05 12:33N 29°34' W 090°36'0 0.0
2017-Mar-05 11:33N 29°34' W 090°36'0 0.0
2017-Mar-05 10:33N 29°34' W 090°36'0 0.0
2017-Mar-05 09:33N 29°34' W 090°36'0 0.0
2017-Mar-05 08:33N 29°34' W 090°36'0 0.0
2017-Mar-05 07:33N 29°34' W 090°36'0 0.0
2017-Mar-05 06:33N 29°34' W 090°36'0 0.0
2017-Mar-05 05:33N 29°34' W 090°36'0 0.0
2017-Mar-05 04:33N 29°34' W 090°36'0 0.0
2017-Mar-05 03:33N 29°34' W 090°36'0 0.0
2017-Mar-05 02:32N 29°34' W 090°36'0 0.0
2017-Mar-05 01:33N 29°34' W 090°36'0 0.0
2017-Mar-05 00:33N 29°34' W 090°36'1 1.3
2017-Mar-04 23:33N 29°35' W 090°37'5 5.0
2017-Mar-04 22:34N 29°36' W 090°43'3 3.5
2017-Mar-04 21:34N 29°33' W 090°45'0 0.0
2017-Mar-04 20:34N 29°33' W 090°45'0 0.0
2017-Mar-04 19:33N 29°33' W 090°45'0 0.3
2017-Mar-04 18:34N 29°33' W 090°45'8 6.8
2017-Mar-04 17:24N 29°33' W 090°54'120 5.5
2017-Mar-03 19:34N 29°56' W 093°10'6 5.7
2017-Mar-03 18:34N 30°01' W 093°14'5 5.3
2017-Mar-03 17:33N 30°05' W 093°17'2 1.6
2017-Mar-03 16:34N 30°06' W 093°19'0 0.3
2017-Mar-03 15:34N 30°06' W 093°19'0 0.0
2017-Mar-03 14:34N 30°06' W 093°19'0 0.0
2017-Mar-03 13:34N 30°06' W 093°19'1 1.3
2017-Mar-03 12:33N 30°05' W 093°20'1 0.1
2017-Mar-03 05:33N 30°04' W 093°20'0 0.0
2017-Mar-03 04:34N 30°04' W 093°20'0 0.0
2017-Mar-03 03:34N 30°04' W 093°20'0 0.0
2017-Mar-03 02:34N 30°04' W 093°20'0 0.0
2017-Mar-03 01:34N 30°04' W 093°20'0 0.0
2017-Mar-03 00:34N 30°04' W 093°20'0 0.0
2017-Mar-02 23:34N 30°04' W 093°20'0 0.0
2017-Mar-02 22:34N 30°04' W 093°20'0 0.0
2017-Mar-02 21:34N 30°04' W 093°20'0 0.0
2017-Mar-02 20:34N 30°04' W 093°20'0 0.0
2017-Mar-02 19:33N 30°04' W 093°20'0 0.4
2017-Mar-02 18:33N 30°05' W 093°20'0 0.5
2017-Mar-02 17:34N 30°05' W 093°20'1 0.8
2017-Mar-02 16:33N 30°04' W 093°20'0 0.0
2017-Mar-02 15:34N 30°04' W 093°20'0 0.0
2017-Mar-02 14:34N 30°04' W 093°20'0 0.0
2017-Mar-02 13:34N 30°04' W 093°20'0 0.0
2017-Mar-02 12:34N 30°04' W 093°20'0 0.0
2017-Mar-02 11:34N 30°04' W 093°20'0 0.0
2017-Mar-02 10:34N 30°04' W 093°20'0 0.0
2017-Mar-02 09:34N 30°04' W 093°20'0 0.0
2017-Mar-02 08:34N 30°04' W 093°20'0 0.0
2017-Mar-02 07:33N 30°04' W 093°20'0 0.0
2017-Mar-02 06:34N 30°04' W 093°20'0 0.0
2017-Mar-02 05:33N 30°04' W 093°20'0 0.0
2017-Mar-02 04:34N 30°04' W 093°20'0 0.0
2017-Mar-02 03:33N 30°04' W 093°20'0 0.0
2017-Mar-02 02:34N 30°04' W 093°20'0 0.0
2017-Mar-02 01:33N 30°04' W 093°20'0 0.0
2017-Mar-02 00:34N 30°04' W 093°20'0 0.0
2017-Mar-01 23:33N 30°04' W 093°20'0 0.0
2017-Mar-01 22:34N 30°04' W 093°20'4 3.8
2017-Mar-01 21:33N 30°08' W 093°19'0 0.0
2017-Mar-01 20:33N 30°08' W 093°19'0 0.0
2017-Mar-01 19:34N 30°08' W 093°19'0 0.0
2017-Mar-01 18:34N 30°08' W 093°19'0 0.1
2017-Mar-01 17:33N 30°08' W 093°19'0 0.0
2017-Mar-01 16:34N 30°08' W 093°19'0 0.0
2017-Mar-01 15:33N 30°08' W 093°19'4 3.8
2017-Mar-01 14:34N 30°05' W 093°20'0 0.1
2017-Mar-01 13:34N 30°04' W 093°20'0 0.0
2017-Mar-01 12:34N 30°04' W 093°20'0 0.0
2017-Mar-01 11:33N 30°04' W 093°20'0 0.0
2017-Mar-01 10:34N 30°04' W 093°20'0 0.0
2017-Mar-01 09:34N 30°04' W 093°20'0 0.0
2017-Mar-01 08:34N 30°04' W 093°20'0 0.0
2017-Mar-01 07:34N 30°04' W 093°20'0 0.0
2017-Mar-01 06:33N 30°04' W 093°20'0 0.0
2017-Mar-01 05:33N 30°04' W 093°20'0 0.0
2017-Mar-01 04:33N 30°04' W 093°20'0 0.0
2017-Mar-01 03:33N 30°04' W 093°20'0 0.0
2017-Mar-01 02:34N 30°04' W 093°20'0 0.0
2017-Mar-01 01:33N 30°04' W 093°20'0 0.0
2017-Mar-01 00:34N 30°04' W 093°20'0 0.0
2017-Feb-28 23:34N 30°04' W 093°20'0 0.0
2017-Feb-28 22:34N 30°04' W 093°20'0 0.0
2017-Feb-28 21:33N 30°04' W 093°20'0 0.0
2017-Feb-28 20:34N 30°04' W 093°20'5 4.6
2017-Feb-28 19:34N 30°04' W 093°26'10 7.1
2017-Feb-28 18:08N 30°04' W 093°37'5 7.2
2017-Feb-28 17:23N 30°03' W 093°43'  
Track history (hours):
 
Tides and Currents Weather Stations Pressure Air Temp Water Temp Dewpoint Dewpoint Depression Visibility Wind Speed Wind Dir Waves Ship Positions

Teddy Meyer

Owner: LeBeouf Bros. Towing, LLC, Houma, LA. More information available from US FCC via Universal Licensing System and Coast Guard Vessel Documentation Center.

Last reported at 2017-Mar-09 11:16 UTC. Time now 2017-Mar-30 12:49 UTC.
Position N 32°31' W 091°06'.
Warning: this ship's position is 21 days out of date.

; draft 3 m.

MMSI: 367507220.

Date/timePositionNaut miles runAvg speedWind from/ knotsBaromVisibWave heightAir tempDewpointWater temp
2017-Mar-09 11:16N 32°31' W 091°06'3 4.6
2017-Mar-09 10:33N 32°28' W 091°06'5 4.7
2017-Mar-09 09:33N 32°26' W 091°01'4 3.6
2017-Mar-09 08:33N 32°22' W 091°00'3 3.2
2017-Mar-09 07:33N 32°21' W 090°57'3 2.9
2017-Mar-09 06:33N 32°19' W 090°54'4 4.4
2017-Mar-09 05:33N 32°16' W 090°58'5 4.6
2017-Mar-09 04:32N 32°11' W 090°60'5 4.3
2017-Mar-09 03:29N 32°07' W 091°02'4 4.4
2017-Mar-09 02:33N 32°07' W 091°07'76 3.2
2017-Mar-08 03:09N 30°60' W 091°47'100 3.7
2017-Mar-07 00:12N 29°32' W 090°50'4 6.7
2017-Mar-06 23:33N 29°33' W 090°46'1 1.1
2017-Mar-06 22:34N 29°34' W 090°45'5 4.6
2017-Mar-06 21:33N 29°36' W 090°40'4 4.0
2017-Mar-06 20:30N 29°35' W 090°36'0 0.1
2017-Mar-06 19:33N 29°35' W 090°36'0 0.4
2017-Mar-06 18:33N 29°34' W 090°36'0 0.0
2017-Mar-06 17:33N 29°34' W 090°36'0 0.0
2017-Mar-06 16:33N 29°34' W 090°36'0 0.0
2017-Mar-06 15:33N 29°34' W 090°36'0 0.0
2017-Mar-06 14:33N 29°34' W 090°36'0 0.0
2017-Mar-06 13:33N 29°34' W 090°36'0 0.0
2017-Mar-06 12:33N 29°34' W 090°36'0 0.0
2017-Mar-06 11:33N 29°34' W 090°36'0 0.0
2017-Mar-06 10:33N 29°34' W 090°36'0 0.0
2017-Mar-06 09:33N 29°34' W 090°36'0 0.0
2017-Mar-06 08:33N 29°34' W 090°36'0 0.0
2017-Mar-06 07:33N 29°34' W 090°36'0 0.0
2017-Mar-06 06:33N 29°34' W 090°36'0 0.0
2017-Mar-06 05:33N 29°34' W 090°36'0 0.0
2017-Mar-06 04:33N 29°34' W 090°36'0 0.0
2017-Mar-06 03:33N 29°34' W 090°36'0 0.0
2017-Mar-06 02:32N 29°34' W 090°36'0 0.0
2017-Mar-06 01:33N 29°34' W 090°36'0 0.0
2017-Mar-06 00:33N 29°34' W 090°36'0 0.0
2017-Mar-05 23:33N 29°34' W 090°36'0 0.0
2017-Mar-05 22:33N 29°34' W 090°36'0 0.0
2017-Mar-05 21:33N 29°34' W 090°36'0 0.0
2017-Mar-05 20:33N 29°34' W 090°36'0 0.0
2017-Mar-05 19:33N 29°34' W 090°36'0 0.0
2017-Mar-05 18:33N 29°34' W 090°36'0 0.0
2017-Mar-05 17:33N 29°34' W 090°36'0 0.0
2017-Mar-05 16:33N 29°34' W 090°36'0 0.0
2017-Mar-05 15:33N 29°34' W 090°36'0 0.0
2017-Mar-05 14:33N 29°34' W 090°36'0 0.0
2017-Mar-05 13:33N 29°34' W 090°36'0 0.0
2017-Mar-05 12:33N 29°34' W 090°36'0 0.0
2017-Mar-05 11:33N 29°34' W 090°36'0 0.0
2017-Mar-05 10:33N 29°34' W 090°36'0 0.0
2017-Mar-05 09:33N 29°34' W 090°36'0 0.0
2017-Mar-05 08:33N 29°34' W 090°36'0 0.0
2017-Mar-05 07:33N 29°34' W 090°36'0 0.0
2017-Mar-05 06:33N 29°34' W 090°36'0 0.0
2017-Mar-05 05:33N 29°34' W 090°36'0 0.0
2017-Mar-05 04:33N 29°34' W 090°36'0 0.0
2017-Mar-05 03:33N 29°34' W 090°36'0 0.0
2017-Mar-05 02:32N 29°34' W 090°36'0 0.0
2017-Mar-05 01:33N 29°34' W 090°36'0 0.0
2017-Mar-05 00:33N 29°34' W 090°36'1 1.3
2017-Mar-04 23:33N 29°35' W 090°37'5 5.0
2017-Mar-04 22:34N 29°36' W 090°43'3 3.5
2017-Mar-04 21:34N 29°33' W 090°45'0 0.0
2017-Mar-04 20:34N 29°33' W 090°45'0 0.0
2017-Mar-04 19:33N 29°33' W 090°45'0 0.3
2017-Mar-04 18:34N 29°33' W 090°45'8 6.8
2017-Mar-04 17:24N 29°33' W 090°54'120 5.5
2017-Mar-03 19:34N 29°56' W 093°10'6 5.7
2017-Mar-03 18:34N 30°01' W 093°14'5 5.3
2017-Mar-03 17:33N 30°05' W 093°17'2 1.6
2017-Mar-03 16:34N 30°06' W 093°19'0 0.3
2017-Mar-03 15:34N 30°06' W 093°19'0 0.0
2017-Mar-03 14:34N 30°06' W 093°19'0 0.0
2017-Mar-03 13:34N 30°06' W 093°19'1 1.3
2017-Mar-03 12:33N 30°05' W 093°20'1 0.1
2017-Mar-03 05:33N 30°04' W 093°20'0 0.0
2017-Mar-03 04:34N 30°04' W 093°20'0 0.0
2017-Mar-03 03:34N 30°04' W 093°20'0 0.0
2017-Mar-03 02:34N 30°04' W 093°20'0 0.0
2017-Mar-03 01:34N 30°04' W 093°20'0 0.0
2017-Mar-03 00:34N 30°04' W 093°20'0 0.0
2017-Mar-02 23:34N 30°04' W 093°20'0 0.0
2017-Mar-02 22:34N 30°04' W 093°20'0 0.0
2017-Mar-02 21:34N 30°04' W 093°20'0 0.0
2017-Mar-02 20:34N 30°04' W 093°20'0 0.0
2017-Mar-02 19:33N 30°04' W 093°20'0 0.4
2017-Mar-02 18:33N 30°05' W 093°20'0 0.5
2017-Mar-02 17:34N 30°05' W 093°20'1 0.8
2017-Mar-02 16:33N 30°04' W 093°20'0 0.0
2017-Mar-02 15:34N 30°04' W 093°20'0 0.0
2017-Mar-02 14:34N 30°04' W 093°20'0 0.0
2017-Mar-02 13:34N 30°04' W 093°20'0 0.0
2017-Mar-02 12:34N 30°04' W 093°20'0 0.0
2017-Mar-02 11:34N 30°04' W 093°20'0 0.0
2017-Mar-02 10:34N 30°04' W 093°20'0 0.0
2017-Mar-02 09:34N 30°04' W 093°20'0 0.0
2017-Mar-02 08:34N 30°04' W 093°20'0 0.0
2017-Mar-02 07:33N 30°04' W 093°20'0 0.0
2017-Mar-02 06:34N 30°04' W 093°20'0 0.0
2017-Mar-02 05:33N 30°04' W 093°20'0 0.0
2017-Mar-02 04:34N 30°04' W 093°20'0 0.0
2017-Mar-02 03:33N 30°04' W 093°20'0 0.0
2017-Mar-02 02:34N 30°04' W 093°20'0 0.0
2017-Mar-02 01:33N 30°04' W 093°20'0 0.0
2017-Mar-02 00:34N 30°04' W 093°20'0 0.0
2017-Mar-01 23:33N 30°04' W 093°20'0 0.0
2017-Mar-01 22:34N 30°04' W 093°20'4 3.8
2017-Mar-01 21:33N 30°08' W 093°19'0 0.0
2017-Mar-01 20:33N 30°08' W 093°19'0 0.0
2017-Mar-01 19:34N 30°08' W 093°19'0 0.0
2017-Mar-01 18:34N 30°08' W 093°19'0 0.1
2017-Mar-01 17:33N 30°08' W 093°19'0 0.0
2017-Mar-01 16:34N 30°08' W 093°19'0 0.0
2017-Mar-01 15:33N 30°08' W 093°19'4 3.8
2017-Mar-01 14:34N 30°05' W 093°20'0 0.1
2017-Mar-01 13:34N 30°04' W 093°20'0 0.0
2017-Mar-01 12:34N 30°04' W 093°20'0 0.0
2017-Mar-01 11:33N 30°04' W 093°20'0 0.0
2017-Mar-01 10:34N 30°04' W 093°20'0 0.0
2017-Mar-01 09:34N 30°04' W 093°20'0 0.0
2017-Mar-01 08:34N 30°04' W 093°20'0 0.0
2017-Mar-01 07:34N 30°04' W 093°20'0 0.0
2017-Mar-01 06:33N 30°04' W 093°20'0 0.0
2017-Mar-01 05:33N 30°04' W 093°20'0 0.0
2017-Mar-01 04:33N 30°04' W 093°20'0 0.0
2017-Mar-01 03:33N 30°04' W 093°20'0 0.0
2017-Mar-01 02:34N 30°04' W 093°20'0 0.0
2017-Mar-01 01:33N 30°04' W 093°20'0 0.0
2017-Mar-01 00:34N 30°04' W 093°20'0 0.0
2017-Feb-28 23:34N 30°04' W 093°20'0 0.0
2017-Feb-28 22:34N 30°04' W 093°20'0 0.0
2017-Feb-28 21:33N 30°04' W 093°20'0 0.0
2017-Feb-28 20:34N 30°04' W 093°20'5 4.6
2017-Feb-28 19:34N 30°04' W 093°26'10 7.1
2017-Feb-28 18:08N 30°04' W 093°37'5 7.2
2017-Feb-28 17:23N 30°03' W 093°43'  

Dump ship's entire track history